sensor_id;sensor_type;location;lat;lon;timestamp;P1;durP1;ratioP1;P2;durP2;ratioP2
52642;SDS011;38531;53.296;6.614;2023-04-03T00:00:25;0.30;;;0.30;;
52642;SDS011;38531;53.296;6.614;2023-04-03T00:02:51;0.88;;;0.28;;
52642;SDS011;38531;53.296;6.614;2023-04-03T00:05:17;0.40;;;0.20;;
52642;SDS011;38531;53.296;6.614;2023-04-03T00:07:42;0.90;;;0.30;;
52642;SDS011;38531;53.296;6.614;2023-04-03T00:10:08;0.60;;;0.30;;
52642;SDS011;38531;53.296;6.614;2023-04-03T00:12:34;0.50;;;0.30;;
52642;SDS011;38531;53.296;6.614;2023-04-03T00:15:00;1.08;;;0.30;;
52642;SDS011;38531;53.296;6.614;2023-04-03T00:17:25;0.98;;;0.30;;
52642;SDS011;38531;53.296;6.614;2023-04-03T00:19:51;0.73;;;0.32;;
52642;SDS011;38531;53.296;6.614;2023-04-03T00:22:16;1.25;;;0.40;;
52642;SDS011;38531;53.296;6.614;2023-04-03T00:24:42;0.95;;;0.30;;
52642;SDS011;38531;53.296;6.614;2023-04-03T00:27:08;0.77;;;0.30;;
52642;SDS011;38531;53.296;6.614;2023-04-03T00:29:33;0.55;;;0.30;;
52642;SDS011;38531;53.296;6.614;2023-04-03T00:31:59;0.30;;;0.30;;
52642;SDS011;38531;53.296;6.614;2023-04-03T00:34:25;0.75;;;0.30;;
52642;SDS011;38531;53.296;6.614;2023-04-03T00:36:51;0.93;;;0.30;;
52642;SDS011;38531;53.296;6.614;2023-04-03T00:39:16;0.68;;;0.30;;
52642;SDS011;38531;53.296;6.614;2023-04-03T00:41:42;0.30;;;0.25;;
52642;SDS011;38531;53.296;6.614;2023-04-03T00:46:58;0.90;;;0.38;;
52642;SDS011;38531;53.296;6.614;2023-04-03T00:49:25;0.82;;;0.30;;
52642;SDS011;38531;53.296;6.614;2023-04-03T00:51:52;0.60;;;0.30;;
52642;SDS011;38531;53.296;6.614;2023-04-03T00:54:18;1.80;;;0.40;;
52642;SDS011;38531;53.296;6.614;2023-04-03T00:56:44;1.65;;;0.30;;
52642;SDS011;38531;53.296;6.614;2023-04-03T00:59:13;0.60;;;0.40;;
52642;SDS011;38531;53.296;6.614;2023-04-03T01:01:43;0.43;;;0.30;;
52642;SDS011;38531;53.296;6.614;2023-04-03T01:06:58;0.77;;;0.28;;
52642;SDS011;38531;53.296;6.614;2023-04-03T01:09:31;0.40;;;0.20;;
52642;SDS011;38531;53.296;6.614;2023-04-03T01:15:02;2.10;;;0.50;;
52642;SDS011;38531;53.296;6.614;2023-04-03T01:17:38;0.38;;;0.30;;
52642;SDS011;38531;53.296;6.614;2023-04-03T01:23:11;2.10;;;0.45;;
52642;SDS011;38531;53.296;6.614;2023-04-03T01:25:46;1.65;;;0.30;;
52642;SDS011;38531;53.296;6.614;2023-04-03T01:33:34;0.90;;;0.38;;
52642;SDS011;38531;53.296;6.614;2023-04-03T01:36:00;1.75;;;0.30;;
52642;SDS011;38531;53.296;6.614;2023-04-03T01:38:26;0.95;;;0.35;;
52642;SDS011;38531;53.296;6.614;2023-04-03T01:40:52;1.25;;;0.40;;
52642;SDS011;38531;53.296;6.614;2023-04-03T01:43:18;1.35;;;0.40;;
52642;SDS011;38531;53.296;6.614;2023-04-03T01:45:46;0.45;;;0.30;;
52642;SDS011;38531;53.296;6.614;2023-04-03T01:48:14;2.28;;;0.40;;
52642;SDS011;38531;53.296;6.614;2023-04-03T01:50:40;1.40;;;0.50;;
52642;SDS011;38531;53.296;6.614;2023-04-03T01:53:06;1.15;;;0.50;;
52642;SDS011;38531;53.296;6.614;2023-04-03T01:55:32;0.90;;;0.40;;
52642;SDS011;38531;53.296;6.614;2023-04-03T01:57:57;0.55;;;0.30;;
52642;SDS011;38531;53.296;6.614;2023-04-03T02:00:23;2.47;;;0.40;;
52642;SDS011;38531;53.296;6.614;2023-04-03T02:02:49;0.85;;;0.40;;
52642;SDS011;38531;53.296;6.614;2023-04-03T02:05:14;0.80;;;0.45;;
52642;SDS011;38531;53.296;6.614;2023-04-03T02:07:40;0.60;;;0.25;;
52642;SDS011;38531;53.296;6.614;2023-04-03T02:10:06;2.85;;;0.40;;
52642;SDS011;38531;53.296;6.614;2023-04-03T02:12:32;1.40;;;0.50;;
52642;SDS011;38531;53.296;6.614;2023-04-03T02:14:58;2.35;;;0.50;;
52642;SDS011;38531;53.296;6.614;2023-04-03T02:17:23;0.85;;;0.30;;
52642;SDS011;38531;53.296;6.614;2023-04-03T02:19:49;1.52;;;1.15;;
52642;SDS011;38531;53.296;6.614;2023-04-03T02:22:15;1.67;;;0.45;;
52642;SDS011;38531;53.296;6.614;2023-04-03T02:24:41;0.55;;;0.30;;
52642;SDS011;38531;53.296;6.614;2023-04-03T02:27:06;2.55;;;0.65;;
52642;SDS011;38531;53.296;6.614;2023-04-03T02:29:32;0.90;;;0.30;;
52642;SDS011;38531;53.296;6.614;2023-04-03T02:31:58;1.55;;;0.30;;
52642;SDS011;38531;53.296;6.614;2023-04-03T02:34:23;1.08;;;0.40;;
52642;SDS011;38531;53.296;6.614;2023-04-03T02:36:49;2.72;;;0.40;;
52642;SDS011;38531;53.296;6.614;2023-04-03T02:39:15;0.52;;;0.32;;
52642;SDS011;38531;53.296;6.614;2023-04-03T02:41:41;0.95;;;0.30;;
52642;SDS011;38531;53.296;6.614;2023-04-03T02:44:08;0.68;;;0.40;;
52642;SDS011;38531;53.296;6.614;2023-04-03T02:46:35;4.78;;;0.70;;
52642;SDS011;38531;53.296;6.614;2023-04-03T02:49:01;0.43;;;0.30;;
52642;SDS011;38531;53.296;6.614;2023-04-03T02:51:27;0.30;;;0.30;;
52642;SDS011;38531;53.296;6.614;2023-04-03T02:53:53;2.25;;;0.43;;
52642;SDS011;38531;53.296;6.614;2023-04-03T02:56:18;2.70;;;0.40;;
52642;SDS011;38531;53.296;6.614;2023-04-03T02:58:45;1.05;;;0.40;;
52642;SDS011;38531;53.296;6.614;2023-04-03T03:01:11;0.90;;;0.40;;
52642;SDS011;38531;53.296;6.614;2023-04-03T03:03:37;1.05;;;0.40;;
52642;SDS011;38531;53.296;6.614;2023-04-03T03:06:06;1.33;;;0.35;;
52642;SDS011;38531;53.296;6.614;2023-04-03T03:08:35;2.00;;;0.43;;
52642;SDS011;38531;53.296;6.614;2023-04-03T03:11:01;1.80;;;0.40;;
52642;SDS011;38531;53.296;6.614;2023-04-03T03:13:28;1.85;;;0.40;;
52642;SDS011;38531;53.296;6.614;2023-04-03T03:15:54;1.42;;;0.38;;
52642;SDS011;38531;53.296;6.614;2023-04-03T03:18:20;0.70;;;0.30;;
52642;SDS011;38531;53.296;6.614;2023-04-03T03:20:46;1.75;;;0.40;;
52642;SDS011;38531;53.296;6.614;2023-04-03T03:23:11;1.55;;;0.40;;
52642;SDS011;38531;53.296;6.614;2023-04-03T03:25:38;3.38;;;0.40;;
52642;SDS011;38531;53.296;6.614;2023-04-03T03:28:04;4.68;;;0.40;;
52642;SDS011;38531;53.296;6.614;2023-04-03T03:30:30;1.85;;;0.38;;
52642;SDS011;38531;53.296;6.614;2023-04-03T03:32:56;0.70;;;0.50;;
52642;SDS011;38531;53.296;6.614;2023-04-03T03:35:21;0.98;;;0.30;;
52642;SDS011;38531;53.296;6.614;2023-04-03T03:37:47;2.88;;;0.50;;
52642;SDS011;38531;53.296;6.614;2023-04-03T03:40:13;0.52;;;0.30;;
52642;SDS011;38531;53.296;6.614;2023-04-03T03:42:39;3.30;;;0.45;;
52642;SDS011;38531;53.296;6.614;2023-04-03T03:45:05;1.73;;;0.43;;
52642;SDS011;38531;53.296;6.614;2023-04-03T03:47:31;1.63;;;0.40;;
52642;SDS011;38531;53.296;6.614;2023-04-03T03:49:57;1.67;;;0.50;;
52642;SDS011;38531;53.296;6.614;2023-04-03T03:52:22;0.98;;;0.30;;
52642;SDS011;38531;53.296;6.614;2023-04-03T03:54:48;0.50;;;0.40;;
52642;SDS011;38531;53.296;6.614;2023-04-03T03:57:14;1.92;;;0.40;;
52642;SDS011;38531;53.296;6.614;2023-04-03T03:59:40;0.77;;;0.40;;
52642;SDS011;38531;53.296;6.614;2023-04-03T04:02:06;0.75;;;0.50;;
52642;SDS011;38531;53.296;6.614;2023-04-03T04:04:32;1.67;;;0.40;;
52642;SDS011;38531;53.296;6.614;2023-04-03T04:06:58;1.20;;;0.40;;
52642;SDS011;38531;53.296;6.614;2023-04-03T04:09:25;1.35;;;0.45;;
52642;SDS011;38531;53.296;6.614;2023-04-03T04:11:51;3.80;;;0.40;;
52642;SDS011;38531;53.296;6.614;2023-04-03T04:14:17;2.05;;;0.40;;
52642;SDS011;38531;53.296;6.614;2023-04-03T04:16:45;1.15;;;0.50;;
52642;SDS011;38531;53.296;6.614;2023-04-03T04:19:11;0.88;;;0.43;;
52642;SDS011;38531;53.296;6.614;2023-04-03T04:21:37;1.85;;;0.63;;
52642;SDS011;38531;53.296;6.614;2023-04-03T04:24:03;2.03;;;0.40;;
52642;SDS011;38531;53.296;6.614;2023-04-03T04:26:29;0.90;;;0.47;;
52642;SDS011;38531;53.296;6.614;2023-04-03T04:28:54;0.70;;;0.40;;
52642;SDS011;38531;53.296;6.614;2023-04-03T04:31:20;2.17;;;0.47;;
52642;SDS011;38531;53.296;6.614;2023-04-03T04:33:46;2.25;;;0.40;;
52642;SDS011;38531;53.296;6.614;2023-04-03T04:36:11;1.67;;;0.52;;
52642;SDS011;38531;53.296;6.614;2023-04-03T04:38:37;2.47;;;0.50;;
52642;SDS011;38531;53.296;6.614;2023-04-03T04:41:03;1.67;;;0.60;;
52642;SDS011;38531;53.296;6.614;2023-04-03T04:43:30;2.25;;;0.40;;
52642;SDS011;38531;53.296;6.614;2023-04-03T04:46:07;1.98;;;0.38;;
52642;SDS011;38531;53.296;6.614;2023-04-03T04:48:34;1.08;;;0.57;;
52642;SDS011;38531;53.296;6.614;2023-04-03T04:51:00;0.95;;;0.50;;
52642;SDS011;38531;53.296;6.614;2023-04-03T04:53:26;2.10;;;0.47;;
52642;SDS011;38531;53.296;6.614;2023-04-03T04:55:52;2.55;;;0.38;;
52642;SDS011;38531;53.296;6.614;2023-04-03T04:58:18;0.70;;;0.30;;
52642;SDS011;38531;53.296;6.614;2023-04-03T05:00:44;1.75;;;0.40;;
52642;SDS011;38531;53.296;6.614;2023-04-03T05:03:10;1.00;;;0.40;;
52642;SDS011;38531;53.296;6.614;2023-04-03T05:05:36;0.98;;;0.43;;
52642;SDS011;38531;53.296;6.614;2023-04-03T05:08:02;1.08;;;0.40;;
52642;SDS011;38531;53.296;6.614;2023-04-03T05:10:29;1.48;;;0.40;;
52642;SDS011;38531;53.296;6.614;2023-04-03T05:12:55;2.85;;;0.50;;
52642;SDS011;38531;53.296;6.614;2023-04-03T05:15:20;2.63;;;0.45;;
52642;SDS011;38531;53.296;6.614;2023-04-03T05:17:46;0.55;;;0.50;;
52642;SDS011;38531;53.296;6.614;2023-04-03T05:20:12;2.72;;;0.43;;
52642;SDS011;38531;53.296;6.614;2023-04-03T05:22:38;1.13;;;0.50;;
52642;SDS011;38531;53.296;6.614;2023-04-03T05:25:04;1.45;;;0.60;;
52642;SDS011;38531;53.296;6.614;2023-04-03T05:27:30;1.48;;;0.50;;
52642;SDS011;38531;53.296;6.614;2023-04-03T05:29:56;1.13;;;0.60;;
52642;SDS011;38531;53.296;6.614;2023-04-03T05:32:22;1.85;;;0.43;;
52642;SDS011;38531;53.296;6.614;2023-04-03T05:34:48;2.15;;;0.50;;
52642;SDS011;38531;53.296;6.614;2023-04-03T05:37:14;1.27;;;0.40;;
52642;SDS011;38531;53.296;6.614;2023-04-03T05:39:40;2.08;;;0.50;;
52642;SDS011;38531;53.296;6.614;2023-04-03T05:42:06;0.98;;;0.40;;
52642;SDS011;38531;53.296;6.614;2023-04-03T05:44:36;1.63;;;0.60;;
52642;SDS011;38531;53.296;6.614;2023-04-03T05:47:02;2.25;;;0.60;;
52642;SDS011;38531;53.296;6.614;2023-04-03T05:49:29;3.05;;;0.50;;
52642;SDS011;38531;53.296;6.614;2023-04-03T05:51:54;1.33;;;0.60;;
52642;SDS011;38531;53.296;6.614;2023-04-03T05:54:21;0.60;;;0.40;;
52642;SDS011;38531;53.296;6.614;2023-04-03T05:56:50;2.88;;;0.57;;
52642;SDS011;38531;53.296;6.614;2023-04-03T05:59:16;1.52;;;0.50;;
52642;SDS011;38531;53.296;6.614;2023-04-03T06:01:42;0.68;;;0.40;;
52642;SDS011;38531;53.296;6.614;2023-04-03T06:04:08;2.00;;;0.50;;
52642;SDS011;38531;53.296;6.614;2023-04-03T06:06:47;1.08;;;0.50;;
52642;SDS011;38531;53.296;6.614;2023-04-03T06:09:22;0.82;;;0.47;;
52642;SDS011;38531;53.296;6.614;2023-04-03T06:11:51;0.63;;;0.40;;
52642;SDS011;38531;53.296;6.614;2023-04-03T06:14:18;1.45;;;0.50;;
52642;SDS011;38531;53.296;6.614;2023-04-03T06:16:44;1.95;;;0.50;;
52642;SDS011;38531;53.296;6.614;2023-04-03T06:19:10;1.40;;;0.50;;
52642;SDS011;38531;53.296;6.614;2023-04-03T06:21:37;1.80;;;0.70;;
52642;SDS011;38531;53.296;6.614;2023-04-03T06:24:03;0.70;;;0.47;;
52642;SDS011;38531;53.296;6.614;2023-04-03T06:26:29;1.83;;;0.47;;
52642;SDS011;38531;53.296;6.614;2023-04-03T06:28:55;0.70;;;0.40;;
52642;SDS011;38531;53.296;6.614;2023-04-03T06:31:21;1.27;;;0.50;;
52642;SDS011;38531;53.296;6.614;2023-04-03T06:33:47;2.17;;;0.57;;
52642;SDS011;38531;53.296;6.614;2023-04-03T06:36:12;4.18;;;0.60;;
52642;SDS011;38531;53.296;6.614;2023-04-03T06:38:38;2.15;;;0.70;;
52642;SDS011;38531;53.296;6.614;2023-04-03T06:41:04;3.33;;;0.77;;
52642;SDS011;38531;53.296;6.614;2023-04-03T06:43:31;1.05;;;0.50;;
52642;SDS011;38531;53.296;6.614;2023-04-03T06:45:57;1.08;;;0.45;;
52642;SDS011;38531;53.296;6.614;2023-04-03T06:48:22;1.85;;;0.73;;
52642;SDS011;38531;53.296;6.614;2023-04-03T06:50:48;2.53;;;0.80;;
52642;SDS011;38531;53.296;6.614;2023-04-03T06:53:14;1.33;;;0.47;;
52642;SDS011;38531;53.296;6.614;2023-04-03T06:55:40;2.88;;;0.50;;
52642;SDS011;38531;53.296;6.614;2023-04-03T06:58:06;1.30;;;0.40;;
52642;SDS011;38531;53.296;6.614;2023-04-03T07:00:32;3.63;;;0.80;;
52642;SDS011;38531;53.296;6.614;2023-04-03T07:02:58;2.50;;;0.73;;
52642;SDS011;38531;53.296;6.614;2023-04-03T07:05:24;4.07;;;0.93;;
52642;SDS011;38531;53.296;6.614;2023-04-03T07:07:51;1.42;;;0.73;;
52642;SDS011;38531;53.296;6.614;2023-04-03T07:10:17;3.35;;;0.70;;
52642;SDS011;38531;53.296;6.614;2023-04-03T07:12:43;3.33;;;1.25;;
52642;SDS011;38531;53.296;6.614;2023-04-03T07:15:10;3.17;;;1.00;;
52642;SDS011;38531;53.296;6.614;2023-04-03T07:17:37;2.92;;;0.90;;
52642;SDS011;38531;53.296;6.614;2023-04-03T07:20:03;6.90;;;1.13;;
52642;SDS011;38531;53.296;6.614;2023-04-03T07:22:29;2.97;;;0.85;;
52642;SDS011;38531;53.296;6.614;2023-04-03T07:24:55;5.50;;;1.50;;
52642;SDS011;38531;53.296;6.614;2023-04-03T07:27:21;3.17;;;0.90;;
52642;SDS011;38531;53.296;6.614;2023-04-03T07:29:46;2.80;;;0.85;;
52642;SDS011;38531;53.296;6.614;2023-04-03T07:32:13;5.30;;;0.90;;
52642;SDS011;38531;53.296;6.614;2023-04-03T07:34:40;2.50;;;0.60;;
52642;SDS011;38531;53.296;6.614;2023-04-03T07:37:06;3.53;;;0.75;;
52642;SDS011;38531;53.296;6.614;2023-04-03T07:39:32;1.10;;;0.60;;
52642;SDS011;38531;53.296;6.614;2023-04-03T07:41:58;1.67;;;0.60;;
52642;SDS011;38531;53.296;6.614;2023-04-03T07:44:24;2.05;;;0.60;;
52642;SDS011;38531;53.296;6.614;2023-04-03T07:46:49;1.48;;;0.60;;
52642;SDS011;38531;53.296;6.614;2023-04-03T07:49:15;1.80;;;0.77;;
52642;SDS011;38531;53.296;6.614;2023-04-03T07:51:43;2.45;;;0.73;;
52642;SDS011;38531;53.296;6.614;2023-04-03T07:54:09;4.88;;;0.98;;
52642;SDS011;38531;53.296;6.614;2023-04-03T07:56:35;2.72;;;0.90;;
52642;SDS011;38531;53.296;6.614;2023-04-03T07:59:01;2.95;;;0.73;;
52642;SDS011;38531;53.296;6.614;2023-04-03T08:01:27;1.75;;;0.73;;
52642;SDS011;38531;53.296;6.614;2023-04-03T08:03:53;1.63;;;0.68;;
52642;SDS011;38531;53.296;6.614;2023-04-03T08:06:18;2.33;;;0.75;;
52642;SDS011;38531;53.296;6.614;2023-04-03T08:08:44;5.93;;;1.05;;
52642;SDS011;38531;53.296;6.614;2023-04-03T08:11:11;2.22;;;0.60;;
52642;SDS011;38531;53.296;6.614;2023-04-03T08:13:37;1.70;;;0.70;;
52642;SDS011;38531;53.296;6.614;2023-04-03T08:16:07;2.95;;;0.47;;
52642;SDS011;38531;53.296;6.614;2023-04-03T08:18:37;3.80;;;0.50;;
52642;SDS011;38531;53.296;6.614;2023-04-03T08:21:08;2.15;;;0.65;;
52642;SDS011;38531;53.296;6.614;2023-04-03T08:23:34;5.15;;;1.55;;
52642;SDS011;38531;53.296;6.614;2023-04-03T08:26:10;4.95;;;0.60;;
52642;SDS011;38531;53.296;6.614;2023-04-03T08:28:38;2.28;;;0.60;;
52642;SDS011;38531;53.296;6.614;2023-04-03T08:31:04;3.45;;;0.65;;
52642;SDS011;38531;53.296;6.614;2023-04-03T08:33:32;5.07;;;0.70;;
52642;SDS011;38531;53.296;6.614;2023-04-03T08:35:59;1.40;;;0.50;;
52642;SDS011;38531;53.296;6.614;2023-04-03T08:38:25;1.83;;;0.68;;
52642;SDS011;38531;53.296;6.614;2023-04-03T08:44:02;2.45;;;0.60;;
52642;SDS011;38531;53.296;6.614;2023-04-03T08:49:42;2.33;;;0.55;;
52642;SDS011;38531;53.296;6.614;2023-04-03T08:52:14;2.17;;;0.63;;
52642;SDS011;38531;53.296;6.614;2023-04-03T08:57:15;1.33;;;0.43;;
52642;SDS011;38531;53.296;6.614;2023-04-03T08:59:44;0.88;;;0.40;;
52642;SDS011;38531;53.296;6.614;2023-04-03T09:02:18;3.03;;;1.05;;
52642;SDS011;38531;53.296;6.614;2023-04-03T09:04:53;2.75;;;0.60;;
52642;SDS011;38531;53.296;6.614;2023-04-03T09:07:22;0.57;;;0.40;;
52642;SDS011;38531;53.296;6.614;2023-04-03T09:09:58;1.25;;;0.43;;
52642;SDS011;38531;53.296;6.614;2023-04-03T09:12:33;3.83;;;1.00;;
52642;SDS011;38531;53.296;6.614;2023-04-03T09:17:53;1.90;;;0.60;;
52642;SDS011;38531;53.296;6.614;2023-04-03T09:23:44;1.05;;;0.45;;
52642;SDS011;38531;53.296;6.614;2023-04-03T09:28:41;2.20;;;0.60;;
52642;SDS011;38531;53.296;6.614;2023-04-03T09:31:26;2.55;;;0.77;;
52642;SDS011;38531;53.296;6.614;2023-04-03T09:33:55;0.70;;;0.30;;
52642;SDS011;38531;53.296;6.614;2023-04-03T09:36:38;0.70;;;0.30;;
52642;SDS011;38531;53.296;6.614;2023-04-03T09:39:18;2.88;;;0.50;;
52642;SDS011;38531;53.296;6.614;2023-04-03T09:41:54;1.65;;;0.43;;
52642;SDS011;38531;53.296;6.614;2023-04-03T09:44:36;0.98;;;0.30;;
52642;SDS011;38531;53.296;6.614;2023-04-03T09:49:48;2.40;;;1.05;;
52642;SDS011;38531;53.296;6.614;2023-04-03T09:52:20;2.60;;;0.88;;
52642;SDS011;38531;53.296;6.614;2023-04-03T09:54:51;0.95;;;0.38;;
52642;SDS011;38531;53.296;6.614;2023-04-03T09:57:16;1.48;;;0.30;;
52642;SDS011;38531;53.296;6.614;2023-04-03T10:02:29;1.85;;;0.47;;
52642;SDS011;38531;53.296;6.614;2023-04-03T10:05:04;1.13;;;0.30;;
52642;SDS011;38531;53.296;6.614;2023-04-03T10:10:40;3.38;;;0.47;;
52642;SDS011;38531;53.296;6.614;2023-04-03T10:13:10;1.85;;;0.80;;
52642;SDS011;38531;53.296;6.614;2023-04-03T10:15:43;1.38;;;0.40;;
52642;SDS011;38531;53.296;6.614;2023-04-03T10:24:07;1.42;;;0.50;;
52642;SDS011;38531;53.296;6.614;2023-04-03T10:35:26;0.30;;;0.22;;
52642;SDS011;38531;53.296;6.614;2023-04-03T10:40:45;2.15;;;0.30;;
52642;SDS011;38531;53.296;6.614;2023-04-03T10:43:16;0.80;;;0.30;;
52642;SDS011;38531;53.296;6.614;2023-04-03T10:45:57;1.90;;;0.40;;
52642;SDS011;38531;53.296;6.614;2023-04-03T10:54:08;0.98;;;0.30;;
52642;SDS011;38531;53.296;6.614;2023-04-03T10:56:39;0.90;;;0.40;;
52642;SDS011;38531;53.296;6.614;2023-04-03T10:59:28;0.98;;;0.30;;
52642;SDS011;38531;53.296;6.614;2023-04-03T11:02:23;1.83;;;0.40;;
52642;SDS011;38531;53.296;6.614;2023-04-03T11:04:50;1.75;;;0.30;;
52642;SDS011;38531;53.296;6.614;2023-04-03T11:07:21;0.45;;;0.20;;
52642;SDS011;38531;53.296;6.614;2023-04-03T11:09:53;3.10;;;0.30;;
52642;SDS011;38531;53.296;6.614;2023-04-03T11:14:52;1.95;;;0.30;;
52642;SDS011;38531;53.296;6.614;2023-04-03T11:17:23;1.60;;;0.30;;
52642;SDS011;38531;53.296;6.614;2023-04-03T11:20:03;0.95;;;0.20;;
52642;SDS011;38531;53.296;6.614;2023-04-03T11:22:47;1.30;;;0.20;;
52642;SDS011;38531;53.296;6.614;2023-04-03T11:25:19;0.70;;;0.30;;
52642;SDS011;38531;53.296;6.614;2023-04-03T11:27:49;0.57;;;0.20;;
52642;SDS011;38531;53.296;6.614;2023-04-03T11:30:20;0.68;;;0.20;;
52642;SDS011;38531;53.296;6.614;2023-04-03T11:35:35;2.10;;;0.30;;
52642;SDS011;38531;53.296;6.614;2023-04-03T11:38:02;0.43;;;0.20;;
52642;SDS011;38531;53.296;6.614;2023-04-03T11:40:34;2.13;;;0.57;;
52642;SDS011;38531;53.296;6.614;2023-04-03T11:50:58;0.75;;;0.30;;
52642;SDS011;38531;53.296;6.614;2023-04-03T11:53:36;0.65;;;0.22;;
52642;SDS011;38531;53.296;6.614;2023-04-03T12:01:49;0.70;;;0.20;;
52642;SDS011;38531;53.296;6.614;2023-04-03T12:04:21;0.32;;;0.22;;
52642;SDS011;38531;53.296;6.614;2023-04-03T12:06:53;1.88;;;0.20;;
52642;SDS011;38531;53.296;6.614;2023-04-03T12:12:01;2.92;;;0.30;;
52642;SDS011;38531;53.296;6.614;2023-04-03T12:14:51;1.10;;;0.30;;
52642;SDS011;38531;53.296;6.614;2023-04-03T12:17:25;2.53;;;0.38;;
52642;SDS011;38531;53.296;6.614;2023-04-03T12:19:52;1.17;;;0.20;;
52642;SDS011;38531;53.296;6.614;2023-04-03T12:22:18;1.17;;;0.30;;
52642;SDS011;38531;53.296;6.614;2023-04-03T12:24:50;2.30;;;0.30;;
52642;SDS011;38531;53.296;6.614;2023-04-03T12:27:33;0.38;;;0.30;;
52642;SDS011;38531;53.296;6.614;2023-04-03T12:43:17;1.25;;;0.28;;
52642;SDS011;38531;53.296;6.614;2023-04-03T12:45:56;0.98;;;0.40;;
52642;SDS011;38531;53.296;6.614;2023-04-03T12:48:29;1.10;;;0.35;;
52642;SDS011;38531;53.296;6.614;2023-04-03T12:50:57;0.82;;;0.30;;
52642;SDS011;38531;53.296;6.614;2023-04-03T12:53:28;1.05;;;0.30;;
52642;SDS011;38531;53.296;6.614;2023-04-03T12:58:49;0.93;;;0.30;;
52642;SDS011;38531;53.296;6.614;2023-04-03T13:01:16;2.13;;;0.30;;
52642;SDS011;38531;53.296;6.614;2023-04-03T13:03:53;0.70;;;0.30;;
52642;SDS011;38531;53.296;6.614;2023-04-03T13:09:14;1.30;;;0.40;;
52642;SDS011;38531;53.296;6.614;2023-04-03T13:11:43;0.85;;;0.43;;
52642;SDS011;38531;53.296;6.614;2023-04-03T13:14:18;1.10;;;0.50;;
52642;SDS011;38531;53.296;6.614;2023-04-03T13:17:10;4.68;;;0.50;;
52642;SDS011;38531;53.296;6.614;2023-04-03T13:19:42;1.13;;;0.38;;
52642;SDS011;38531;53.296;6.614;2023-04-03T13:25:32;0.57;;;0.25;;
52642;SDS011;38531;53.296;6.614;2023-04-03T13:27:59;1.13;;;0.30;;
52642;SDS011;38531;53.296;6.614;2023-04-03T13:30:29;1.10;;;0.30;;
52642;SDS011;38531;53.296;6.614;2023-04-03T13:32:59;2.35;;;0.40;;
52642;SDS011;38531;53.296;6.614;2023-04-03T13:35:38;0.82;;;0.40;;
52642;SDS011;38531;53.296;6.614;2023-04-03T13:38:19;0.60;;;0.30;;
52642;SDS011;38531;53.296;6.614;2023-04-03T13:40:56;1.95;;;0.30;;
52642;SDS011;38531;53.296;6.614;2023-04-03T13:43:29;2.47;;;0.43;;
52642;SDS011;38531;53.296;6.614;2023-04-03T13:46:01;1.70;;;0.63;;
52642;SDS011;38531;53.296;6.614;2023-04-03T13:48:48;2.53;;;0.40;;
52642;SDS011;38531;53.296;6.614;2023-04-03T13:51:18;1.15;;;0.32;;
52642;SDS011;38531;53.296;6.614;2023-04-03T13:53:56;1.58;;;0.40;;
52642;SDS011;38531;53.296;6.614;2023-04-03T13:56:31;0.70;;;0.30;;
52642;SDS011;38531;53.296;6.614;2023-04-03T13:59:03;2.28;;;0.50;;
52642;SDS011;38531;53.296;6.614;2023-04-03T14:04:20;3.35;;;0.30;;
52642;SDS011;38531;53.296;6.614;2023-04-03T14:06:48;0.82;;;0.30;;
52642;SDS011;38531;53.296;6.614;2023-04-03T14:09:16;1.10;;;0.20;;
52642;SDS011;38531;53.296;6.614;2023-04-03T14:11:43;0.95;;;0.20;;
52642;SDS011;38531;53.296;6.614;2023-04-03T14:14:14;1.65;;;0.28;;
52642;SDS011;38531;53.296;6.614;2023-04-03T14:16:44;3.20;;;0.30;;
52642;SDS011;38531;53.296;6.614;2023-04-03T14:19:29;4.40;;;0.40;;
52642;SDS011;38531;53.296;6.614;2023-04-03T14:21:57;1.83;;;0.20;;
52642;SDS011;38531;53.296;6.614;2023-04-03T14:24:24;1.10;;;0.40;;
52642;SDS011;38531;53.296;6.614;2023-04-03T14:26:51;1.35;;;0.30;;
52642;SDS011;38531;53.296;6.614;2023-04-03T14:29:18;1.13;;;0.30;;
52642;SDS011;38531;53.296;6.614;2023-04-03T14:31:46;1.83;;;0.10;;
52642;SDS011;38531;53.296;6.614;2023-04-03T14:34:13;1.52;;;0.30;;
52642;SDS011;38531;53.296;6.614;2023-04-03T14:36:40;2.28;;;0.20;;
52642;SDS011;38531;53.296;6.614;2023-04-03T14:39:10;0.90;;;0.30;;
52642;SDS011;38531;53.296;6.614;2023-04-03T14:41:40;2.05;;;0.40;;
52642;SDS011;38531;53.296;6.614;2023-04-03T14:44:06;2.03;;;0.40;;
52642;SDS011;38531;53.296;6.614;2023-04-03T14:46:34;0.30;;;0.20;;
52642;SDS011;38531;53.296;6.614;2023-04-03T14:49:02;2.38;;;0.20;;
52642;SDS011;38531;53.296;6.614;2023-04-03T14:51:32;2.30;;;0.32;;
52642;SDS011;38531;53.296;6.614;2023-04-03T14:53:58;0.65;;;0.30;;
52642;SDS011;38531;53.296;6.614;2023-04-03T14:56:27;1.08;;;0.30;;
52642;SDS011;38531;53.296;6.614;2023-04-03T14:59:00;0.40;;;0.20;;
52642;SDS011;38531;53.296;6.614;2023-04-03T15:01:26;2.17;;;0.20;;
52642;SDS011;38531;53.296;6.614;2023-04-03T15:03:53;0.98;;;0.20;;
52642;SDS011;38531;53.296;6.614;2023-04-03T15:06:19;2.90;;;0.35;;
52642;SDS011;38531;53.296;6.614;2023-04-03T15:08:45;1.33;;;0.25;;
52642;SDS011;38531;53.296;6.614;2023-04-03T15:11:15;1.20;;;0.30;;
52642;SDS011;38531;53.296;6.614;2023-04-03T15:13:41;1.33;;;0.30;;
52642;SDS011;38531;53.296;6.614;2023-04-03T15:16:25;2.45;;;0.28;;
52642;SDS011;38531;53.296;6.614;2023-04-03T15:18:50;0.85;;;0.25;;
52642;SDS011;38531;53.296;6.614;2023-04-03T15:21:16;0.20;;;0.20;;
52642;SDS011;38531;53.296;6.614;2023-04-03T15:23:42;0.77;;;0.20;;
52642;SDS011;38531;53.296;6.614;2023-04-03T15:26:08;1.15;;;0.20;;
52642;SDS011;38531;53.296;6.614;2023-04-03T15:28:39;1.75;;;0.20;;
52642;SDS011;38531;53.296;6.614;2023-04-03T15:31:07;0.38;;;0.20;;
52642;SDS011;38531;53.296;6.614;2023-04-03T15:33:33;0.73;;;0.28;;
52642;SDS011;38531;53.296;6.614;2023-04-03T15:36:00;0.40;;;0.20;;
52642;SDS011;38531;53.296;6.614;2023-04-03T15:38:26;0.63;;;0.30;;
52642;SDS011;38531;53.296;6.614;2023-04-03T15:40:53;3.17;;;0.28;;
52642;SDS011;38531;53.296;6.614;2023-04-03T15:43:20;2.55;;;0.45;;
52642;SDS011;38531;53.296;6.614;2023-04-03T15:45:46;0.77;;;0.22;;
52642;SDS011;38531;53.296;6.614;2023-04-03T15:48:14;1.40;;;0.30;;
52642;SDS011;38531;53.296;6.614;2023-04-03T15:50:40;2.08;;;0.32;;
52642;SDS011;38531;53.296;6.614;2023-04-03T15:53:06;2.65;;;0.35;;
52642;SDS011;38531;53.296;6.614;2023-04-03T15:55:35;0.30;;;0.30;;
52642;SDS011;38531;53.296;6.614;2023-04-03T15:58:08;1.00;;;0.30;;
52642;SDS011;38531;53.296;6.614;2023-04-03T16:04:12;0.77;;;0.30;;
52642;SDS011;38531;53.296;6.614;2023-04-03T16:07:02;1.63;;;0.30;;
52642;SDS011;38531;53.296;6.614;2023-04-03T16:10:07;0.90;;;0.30;;
52642;SDS011;38531;53.296;6.614;2023-04-03T16:12:33;2.50;;;0.40;;
52642;SDS011;38531;53.296;6.614;2023-04-03T16:15:00;1.17;;;0.38;;
52642;SDS011;38531;53.296;6.614;2023-04-03T16:17:28;3.03;;;0.30;;
52642;SDS011;38531;53.296;6.614;2023-04-03T16:19:55;0.65;;;0.30;;
52642;SDS011;38531;53.296;6.614;2023-04-03T16:22:21;1.02;;;0.30;;
52642;SDS011;38531;53.296;6.614;2023-04-03T16:24:49;0.68;;;0.30;;
52642;SDS011;38531;53.296;6.614;2023-04-03T16:27:15;0.85;;;0.40;;
52642;SDS011;38531;53.296;6.614;2023-04-03T16:29:41;2.40;;;0.45;;
52642;SDS011;38531;53.296;6.614;2023-04-03T16:32:07;1.63;;;0.50;;
52642;SDS011;38531;53.296;6.614;2023-04-03T16:34:33;1.58;;;0.75;;
52642;SDS011;38531;53.296;6.614;2023-04-03T16:36:59;4.03;;;0.40;;
52642;SDS011;38531;53.296;6.614;2023-04-03T16:39:25;1.33;;;0.30;;
52642;SDS011;38531;53.296;6.614;2023-04-03T16:41:51;2.03;;;0.40;;
52642;SDS011;38531;53.296;6.614;2023-04-03T16:44:17;1.95;;;0.25;;
52642;SDS011;38531;53.296;6.614;2023-04-03T16:46:43;0.98;;;0.30;;
52642;SDS011;38531;53.296;6.614;2023-04-03T16:49:09;0.85;;;0.30;;
52642;SDS011;38531;53.296;6.614;2023-04-03T16:51:37;1.08;;;0.35;;